Time;durP1;ratioP1;P1;durP2;ratioP2;P2;SDS_P1;SDS_P2;PMS_P1;PMS_P2;Temp;Humidity;BMP_temperature;BMP_pressure;BME280_temperature;BME280_humidity;BME280_pressure;Samples;Min_cycle;Max_cycle;Signal;HPM_P1;HPM_P2
2023/06/16 00:02:17;;;;;;;7.78;6.10;;;19.20;99.90;;;;;;4975395;28;20394;-71
2023/06/16 00:04:43;;;;;;;8.82;5.82;;;19.10;99.90;;;;;;4985557;28;20057;-72
2023/06/16 00:07:09;;;;;;;7.50;6.00;;;19.00;99.90;;;;;;4971972;28;20122;-72
2023/06/16 00:09:35;;;;;;;6.43;5.80;;;19.00;99.90;;;;;;4990536;28;20255;-72
2023/06/16 00:12:01;;;;;;;7.38;5.72;;;19.00;99.90;;;;;;4988130;28;20042;-72
2023/06/16 00:14:27;;;;;;;7.47;5.75;;;18.90;99.90;;;;;;4983001;28;20406;-71
2023/06/16 00:16:53;;;;;;;6.93;5.80;;;18.90;99.90;;;;;;4988607;28;20533;-72
2023/06/16 00:19:21;;;;;;;9.90;6.43;;;18.70;99.90;;;;;;4982745;28;20062;-72
2023/06/16 00:21:48;;;;;;;7.25;5.78;;;18.80;99.90;;;;;;4990339;28;20050;-72
2023/06/16 00:24:13;;;;;;;9.57;6.30;;;18.70;99.90;;;;;;5086324;28;20091;-72
2023/06/16 00:26:39;;;;;;;8.63;5.95;;;18.60;99.90;;;;;;4983797;28;20054;-72
2023/06/16 00:29:07;;;;;;;7.70;6.63;;;18.60;99.90;;;;;;4987770;28;20049;-72
2023/06/16 00:31:33;;;;;;;6.85;5.85;;;18.60;99.90;;;;;;4984746;28;20085;-72
2023/06/16 00:33:59;;;;;;;7.03;6.22;;;18.60;99.90;;;;;;5053977;28;20439;-71
2023/06/16 00:36:25;;;;;;;6.97;6.28;;;18.60;99.90;;;;;;4980078;28;20127;-72
2023/06/16 00:38:51;;;;;;;6.78;5.90;;;18.60;99.90;;;;;;4986956;28;20058;-72
2023/06/16 00:41:17;;;;;;;6.25;5.65;;;18.50;99.90;;;;;;5052930;28;20054;-72
2023/06/16 00:43:42;;;;;;;7.55;5.90;;;18.50;99.90;;;;;;4977760;28;20042;-72
2023/06/16 00:46:11;;;;;;;6.70;5.28;;;18.40;99.90;;;;;;4984655;28;20045;-71
2023/06/16 00:48:36;;;;;;;6.05;5.43;;;18.40;99.90;;;;;;5042399;28;20046;-71
2023/06/16 00:51:03;;;;;;;5.93;5.32;;;18.40;99.90;;;;;;5040347;28;20123;-71
2023/06/16 00:53:31;;;;;;;6.18;5.18;;;18.40;99.90;;;;;;5045739;28;20058;-72
2023/06/16 00:55:58;;;;;;;6.03;5.43;;;18.30;99.90;;;;;;4980440;28;20057;-71
2023/06/16 00:58:24;;;;;;;6.15;5.32;;;18.30;99.90;;;;;;5049895;28;20042;-71
2023/06/16 01:00:51;;;;;;;5.78;5.18;;;18.30;99.90;;;;;;4981134;28;20038;-71
2023/06/16 01:03:17;;;;;;;6.28;5.68;;;18.30;99.90;;;;;;4979465;28;20557;-71
2023/06/16 01:05:43;;;;;;;5.72;5.13;;;18.20;99.90;;;;;;4981038;28;20043;-72
2023/06/16 01:08:38;;;;;;;5.97;4.88;;;18.20;99.90;;;;;;4981046;28;20046;-72
2023/06/16 01:11:36;;;;;;;5.97;5.13;;;18.10;99.90;;;;;;5047178;28;20042;-71
2023/06/16 01:14:42;;;;;;;6.97;5.93;;;18.10;99.90;;;;;;4981041;28;20088;-71
2023/06/16 01:17:09;;;;;;;5.80;4.97;;;18.00;99.90;;;;;;4978655;28;20059;-71
2023/06/16 01:19:45;;;;;;;6.05;5.45;;;18.00;99.90;;;;;;5058924;28;20093;-72
2023/06/16 01:22:34;;;;;;;6.15;5.55;;;18.00;99.90;;;;;;4986214;28;20068;-71
2023/06/16 01:25:03;;;;;;;6.18;5.57;;;18.00;99.90;;;;;;4983497;28;20053;-71
2023/06/16 01:27:30;;;;;;;6.28;5.68;;;17.90;99.90;;;;;;4977735;28;20069;-71
2023/06/16 01:29:57;;;;;;;6.95;6.10;;;17.80;99.90;;;;;;4980187;28;20046;-71
2023/06/16 01:32:25;;;;;;;7.18;6.47;;;17.90;99.90;;;;;;4982544;28;20127;-71
2023/06/16 01:34:51;;;;;;;6.93;6.22;;;17.90;99.90;;;;;;5064960;28;20046;-71
2023/06/16 01:37:19;;;;;;;7.05;6.18;;;17.80;99.90;;;;;;5049626;28;20402;-71
2023/06/16 01:39:46;;;;;;;7.07;6.38;;;17.80;99.90;;;;;;4986555;28;20046;-71
2023/06/16 01:42:13;;;;;;;6.90;6.20;;;17.80;99.90;;;;;;4986572;28;21405;-71
2023/06/16 01:44:41;;;;;;;8.57;6.90;;;17.80;99.90;;;;;;4982766;28;20046;-71
2023/06/16 01:47:08;;;;;;;6.95;6.25;;;17.70;99.90;;;;;;4977618;28;20096;-71
2023/06/16 01:49:34;;;;;;;6.90;6.20;;;17.60;99.90;;;;;;5047809;28;20535;-72
2023/06/16 01:52:00;;;;;;;7.22;6.50;;;17.60;99.90;;;;;;4979849;28;20050;-71
2023/06/16 01:54:26;;;;;;;7.95;6.65;;;17.60;99.90;;;;;;4981261;28;20041;-72
2023/06/16 01:56:52;;;;;;;7.65;6.82;;;17.60;99.90;;;;;;5047303;28;20038;-71
2023/06/16 01:59:17;;;;;;;8.32;6.85;;;17.50;99.90;;;;;;4979832;28;20455;-72
2023/06/16 02:01:51;;;;;;;7.43;6.38;;;17.50;99.90;;;;;;4985442;28;20177;-72
2023/06/16 02:04:22;;;;;;;8.23;6.82;;;17.50;99.90;;;;;;5055646;28;20057;-71
2023/06/16 02:06:59;;;;;;;7.13;6.40;;;17.40;99.90;;;;;;5049013;28;20099;-72
2023/06/16 02:09:26;;;;;;;8.80;7.43;;;17.30;99.90;;;;;;4982100;28;20124;-71
2023/06/16 02:11:53;;;;;;;9.52;8.55;;;17.30;99.90;;;;;;4987101;28;20175;-71
2023/06/16 02:14:20;;;;;;;9.63;8.63;;;17.30;99.90;;;;;;4988231;28;20087;-71
2023/06/16 02:16:46;;;;;;;10.05;8.98;;;17.30;99.90;;;;;;5046272;28;20130;-71
2023/06/16 02:19:12;;;;;;;11.82;10.02;;;17.20;99.90;;;;;;4987653;28;20030;-71
2023/06/16 02:21:40;;;;;;;10.00;9.00;;;17.20;99.90;;;;;;4985966;28;20043;-72
2023/06/16 02:24:06;;;;;;;11.57;9.70;;;17.20;99.90;;;;;;4981064;28;20047;-71
2023/06/16 02:26:32;;;;;;;10.32;9.30;;;17.20;99.90;;;;;;4984800;28;20654;-72
2023/06/16 02:28:58;;;;;;;12.80;11.50;;;17.20;99.90;;;;;;4984158;28;20050;-72
2023/06/16 02:31:23;;;;;;;13.20;11.90;;;17.10;99.90;;;;;;4982343;28;20053;-72
2023/06/16 02:33:53;;;;;;;12.18;10.98;;;17.20;99.90;;;;;;4981211;28;20046;-71
2023/06/16 02:36:19;;;;;;;13.45;12.05;;;17.20;99.90;;;;;;4978593;28;20050;-72
2023/06/16 02:38:45;;;;;;;11.65;10.40;;;17.20;99.90;;;;;;4990136;28;20199;-72
2023/06/16 02:41:11;;;;;;;11.13;9.68;;;17.20;99.90;;;;;;4986410;28;20576;-71
2023/06/16 02:43:37;;;;;;;11.68;10.57;;;17.10;99.90;;;;;;4980244;28;20043;-72
2023/06/16 02:46:03;;;;;;;11.43;10.32;;;17.10;99.90;;;;;;4982517;28;20034;-71
2023/06/16 02:48:28;;;;;;;11.70;10.43;;;17.00;99.90;;;;;;4979673;28;20124;-71
2023/06/16 02:50:54;;;;;;;12.38;10.65;;;17.00;99.90;;;;;;4980563;28;20402;-72
2023/06/16 02:53:20;;;;;;;12.13;10.90;;;17.00;99.90;;;;;;4981316;28;20383;-71
2023/06/16 02:55:48;;;;;;;11.88;10.63;;;17.00;99.90;;;;;;4990715;28;20521;-71
2023/06/16 02:58:14;;;;;;;12.98;11.57;;;17.00;99.90;;;;;;4988776;28;20057;-71
2023/06/16 03:00:40;;;;;;;12.18;10.88;;;17.00;99.90;;;;;;4989914;28;20046;-71
2023/06/16 03:03:07;;;;;;;13.02;11.63;;;17.00;99.90;;;;;;4995266;28;20398;-71
2023/06/16 03:05:33;;;;;;;12.13;10.93;;;16.90;99.90;;;;;;5006488;28;20054;-72
2023/06/16 03:07:59;;;;;;;12.80;11.50;;;16.90;99.90;;;;;;4994123;28;20042;-71
2023/06/16 03:10:25;;;;;;;13.48;10.70;;;17.00;99.90;;;;;;4988394;28;20386;-71
2023/06/16 03:12:51;;;;;;;12.95;11.32;;;17.00;99.90;;;;;;5015893;28;20129;-72
2023/06/16 03:15:16;;;;;;;13.38;12.07;;;17.00;99.90;;;;;;4980427;28;20436;-72
2023/06/16 03:17:43;;;;;;;14.25;11.73;;;17.00;99.90;;;;;;4980141;28;20042;-71
2023/06/16 03:20:09;;;;;;;13.50;12.18;;;17.00;99.90;;;;;;4982644;28;21666;-72
2023/06/16 03:22:35;;;;;;;13.25;11.88;;;17.00;99.90;;;;;;4983049;28;20038;-71
2023/06/16 03:25:02;;;;;;;14.45;12.43;;;17.00;99.90;;;;;;4979895;28;20034;-71
2023/06/16 03:27:31;;;;;;;13.15;11.77;;;17.00;99.90;;;;;;4982604;28;20050;-72
2023/06/16 03:29:57;;;;;;;14.30;12.80;;;16.90;99.90;;;;;;4982716;28;20046;-72
2023/06/16 03:32:23;;;;;;;15.35;13.75;;;16.90;99.90;;;;;;4967271;28;20058;-72
2023/06/16 03:34:48;;;;;;;13.90;12.10;;;16.90;99.90;;;;;;4983113;28;20062;-71
2023/06/16 03:37:17;;;;;;;14.35;12.95;;;16.90;99.90;;;;;;4978996;28;20466;-72
2023/06/16 03:39:43;;;;;;;15.07;13.68;;;16.80;99.90;;;;;;4982824;28;20567;-72
2023/06/16 03:42:08;;;;;;;14.70;13.25;;;16.80;99.90;;;;;;4988352;28;20050;-72
2023/06/16 03:44:34;;;;;;;16.58;15.00;;;16.80;99.90;;;;;;4987291;28;20505;-72
2023/06/16 03:47:00;;;;;;;15.98;14.38;;;16.80;99.90;;;;;;4983613;28;20461;-71
2023/06/16 03:49:26;;;;;;;14.90;13.40;;;16.80;99.90;;;;;;4980113;28;20150;-71
2023/06/16 03:51:52;;;;;;;17.60;15.30;;;16.80;99.90;;;;;;4986826;28;20527;-72
2023/06/16 03:54:19;;;;;;;15.90;14.30;;;16.80;99.90;;;;;;4989277;28;20075;-71
2023/06/16 03:56:45;;;;;;;15.77;14.15;;;16.80;99.90;;;;;;4985701;28;20047;-71
2023/06/16 03:59:11;;;;;;;16.73;15.05;;;16.80;99.90;;;;;;4985682;28;20428;-71
2023/06/16 04:01:37;;;;;;;17.33;15.65;;;16.80;99.90;;;;;;4988845;28;20054;-71
2023/06/16 04:04:03;;;;;;;18.02;16.13;;;16.90;99.90;;;;;;4996418;28;20048;-71
2023/06/16 04:06:29;;;;;;;17.58;15.00;;;16.90;99.90;;;;;;4982310;28;20053;-71
2023/06/16 04:08:56;;;;;;;17.65;15.75;;;17.00;99.90;;;;;;4984411;28;20042;-71
2023/06/16 04:11:23;;;;;;;18.35;15.18;;;17.00;99.90;;;;;;4982579;28;20714;-71
2023/06/16 04:13:48;;;;;;;18.45;16.65;;;17.00;99.90;;;;;;4990260;28;20043;-72
2023/06/16 04:16:14;;;;;;;18.13;15.65;;;17.10;99.90;;;;;;4996651;28;20053;-71
2023/06/16 04:18:40;;;;;;;18.35;16.42;;;17.10;99.90;;;;;;4983643;28;20047;-71
2023/06/16 04:21:06;;;;;;;19.02;15.07;;;17.20;99.90;;;;;;4989543;28;20050;-72
2023/06/16 04:23:33;;;;;;;19.90;14.50;;;17.20;99.90;;;;;;4983858;28;20789;-72
2023/06/16 04:25:58;;;;;;;17.77;14.60;;;17.20;99.90;;;;;;4992040;28;20377;-71
2023/06/16 04:28:24;;;;;;;16.73;13.63;;;17.20;99.90;;;;;;4984407;28;20551;-71
2023/06/16 04:30:50;;;;;;;17.92;13.07;;;17.30;99.90;;;;;;4993036;28;20050;-71
2023/06/16 04:33:16;;;;;;;15.40;12.40;;;17.30;99.90;;;;;;4983760;28;20038;-71
2023/06/16 04:35:42;;;;;;;15.43;12.23;;;17.30;99.90;;;;;;4991241;28;20030;-71
2023/06/16 04:38:08;;;;;;;15.98;14.23;;;;;;;;;;4984436;28;20062;-71
2023/06/16 04:40:36;;;;;;;15.27;13.15;;;17.30;99.90;;;;;;4980190;28;20082;-71
2023/06/16 04:43:02;;;;;;;13.07;10.88;;;17.40;99.90;;;;;;5012627;28;20645;-72
2023/06/16 04:45:28;;;;;;;10.25;9.23;;;17.40;99.90;;;;;;4982879;28;20057;-72
2023/06/16 04:47:54;;;;;;;8.85;7.88;;;17.50;99.90;;;;;;4985756;28;20435;-71
2023/06/16 04:50:19;;;;;;;7.85;7.03;;;17.50;99.90;;;;;;4983858;28;20058;-71
2023/06/16 04:52:47;;;;;;;9.27;7.15;;;17.60;99.90;;;;;;4983648;28;20382;-72
2023/06/16 04:55:16;;;;;;;8.15;7.35;;;17.60;99.90;;;;;;4983377;28;20053;-71
2023/06/16 04:57:42;;;;;;;8.45;7.45;;;17.60;99.90;;;;;;4981779;28;20043;-72
2023/06/16 05:00:09;;;;;;;6.38;5.75;;;17.70;99.90;;;;;;4990384;28;20057;-71
2023/06/16 05:02:35;;;;;;;9.27;6.88;;;17.70;99.90;;;;;;4983619;28;20053;-72
2023/06/16 05:05:03;;;;;;;7.47;6.35;;;17.60;99.90;;;;;;4976776;28;20085;-71
2023/06/16 05:07:29;;;;;;;7.00;5.97;;;17.80;99.90;;;;;;4985100;28;20122;-72
2023/06/16 05:09:55;;;;;;;8.25;6.93;;;17.90;99.90;;;;;;4984042;28;20354;-71
2023/06/16 05:12:21;;;;;;;7.15;6.07;;;17.90;99.90;;;;;;4976678;28;20065;-71
2023/06/16 05:14:47;;;;;;;7.63;6.55;;;;;;;;;;4978588;28;20046;-72
2023/06/16 05:17:12;;;;;;;7.40;6.55;;;18.00;99.90;;;;;;4981188;28;20042;-71
2023/06/16 05:19:38;;;;;;;8.43;6.68;;;17.90;99.90;;;;;;4982243;28;20096;-71
2023/06/16 05:22:04;;;;;;;7.35;6.30;;;;;;;;;;4979935;28;20056;-71
2023/06/16 05:24:30;;;;;;;7.78;6.97;;;18.10;99.90;;;;;;4964680;28;20086;-71
2023/06/16 05:26:56;;;;;;;7.35;6.20;;;;;;;;;;4977692;28;20078;-71
2023/06/16 05:29:21;;;;;;;7.22;6.47;;;18.20;99.90;;;;;;4978091;28;20099;-71
2023/06/16 05:31:47;;;;;;;7.72;7.00;;;18.40;99.90;;;;;;4976387;28;20042;-71
2023/06/16 05:34:13;;;;;;;7.22;6.43;;;18.30;99.90;;;;;;4977674;28;20042;-71
2023/06/16 05:36:41;;;;;;;8.45;6.43;;;18.40;99.90;;;;;;4979031;28;20085;-71
2023/06/16 05:39:07;;;;;;;7.13;6.40;;;18.40;99.90;;;;;;5062546;28;20603;-71
2023/06/16 05:41:34;;;;;;;7.97;6.45;;;18.40;99.90;;;;;;5047941;28;20067;-71
2023/06/16 05:44:00;;;;;;;7.45;6.70;;;18.40;99.90;;;;;;4985970;28;20099;-71
2023/06/16 05:46:26;;;;;;;8.00;6.32;;;18.50;99.90;;;;;;4997171;28;20059;-71
2023/06/16 05:48:52;;;;;;;7.50;6.70;;;18.50;99.90;;;;;;4980909;28;20039;-71
2023/06/16 05:51:17;;;;;;;8.65;7.57;;;18.50;99.90;;;;;;4997757;28;20054;-71
2023/06/16 05:53:43;;;;;;;9.38;7.75;;;18.50;99.90;;;;;;5063074;28;20125;-72
2023/06/16 05:56:09;;;;;;;9.73;7.60;;;;;;;;;;4997632;28;20054;-71
2023/06/16 05:58:36;;;;;;;7.72;6.93;;;;;;;;;;4986054;28;20038;-71
2023/06/16 06:01:13;;;;;;;8.52;7.55;;;18.60;99.90;;;;;;5029218;28;20052;-70
2023/06/16 06:03:44;;;;;;;7.70;6.93;;;18.70;99.90;;;;;;4986706;28;20038;-71
2023/06/16 06:06:10;;;;;;;7.47;6.78;;;18.70;99.90;;;;;;4983777;28;20389;-71
2023/06/16 06:08:36;;;;;;;7.85;7.13;;;18.60;99.90;;;;;;5056095;28;20511;-71
2023/06/16 06:11:04;;;;;;;7.80;7.00;;;;;;;;;;5054441;28;20046;-71
2023/06/16 06:13:29;;;;;;;8.07;7.13;;;18.50;99.90;;;;;;4980348;28;20123;-70
2023/06/16 06:15:55;;;;;;;8.18;7.22;;;18.60;99.90;;;;;;4983300;28;20486;-71
2023/06/16 06:18:20;;;;;;;8.55;7.03;;;18.60;99.90;;;;;;4985226;28;20050;-71
2023/06/16 06:20:46;;;;;;;9.13;7.07;;;18.60;99.90;;;;;;5047682;28;20050;-70
2023/06/16 06:23:12;;;;;;;7.35;6.63;;;18.70;99.90;;;;;;5047498;28;20046;-71
2023/06/16 06:25:40;;;;;;;7.30;6.60;;;18.70;99.90;;;;;;5047777;28;20042;-70
2023/06/16 06:28:06;;;;;;;8.25;7.20;;;18.70;99.90;;;;;;4980466;28;20042;-71
2023/06/16 06:30:32;;;;;;;9.13;7.47;;;18.80;99.90;;;;;;4986053;28;20627;-71
2023/06/16 06:32:57;;;;;;;7.35;6.55;;;18.80;99.90;;;;;;4989419;28;20034;-71
2023/06/16 06:35:23;;;;;;;7.38;6.47;;;18.70;99.90;;;;;;5056840;28;20050;-71
2023/06/16 06:37:49;;;;;;;9.70;7.15;;;18.70;99.90;;;;;;5057228;28;20050;-74
2023/06/16 06:40:15;;;;;;;9.23;6.97;;;18.70;99.90;;;;;;5053027;28;20519;-70
2023/06/16 06:42:40;;;;;;;6.78;6.07;;;18.70;99.90;;;;;;4988159;28;20042;-71
2023/06/16 06:45:08;;;;;;;6.97;6.22;;;18.80;99.90;;;;;;4988531;28;20064;-71
2023/06/16 06:47:33;;;;;;;7.60;6.75;;;18.80;99.90;;;;;;4981700;28;20053;-71
2023/06/16 06:49:59;;;;;;;8.88;6.80;;;18.90;99.90;;;;;;4988195;28;20034;-71
2023/06/16 06:52:25;;;;;;;7.05;6.20;;;18.90;99.90;;;;;;5051458;28;20104;-71
2023/06/16 06:54:50;;;;;;;7.90;6.82;;;18.90;99.90;;;;;;5049133;28;20053;-71
2023/06/16 06:57:16;;;;;;;7.72;6.50;;;18.90;99.90;;;;;;5044615;28;20101;-72
2023/06/16 06:59:42;;;;;;;8.02;7.18;;;;;;;;;;4983554;28;20039;-71
2023/06/16 07:02:08;;;;;;;8.68;6.68;;;;;;;;;;4982545;28;20156;-71
2023/06/16 07:04:38;;;;;;;8.30;6.80;;;;;;;;;;4985774;28;20049;-71
2023/06/16 07:07:04;;;;;;;7.82;7.05;;;;;;;;;;4988029;28;20135;-71
2023/06/16 07:09:30;;;;;;;8.23;7.05;;;;;;;;;;4988226;28;20065;-73
2023/06/16 07:11:56;;;;;;;7.93;6.50;;;;;;;;;;5054402;28;20077;-71
2023/06/16 07:14:22;;;;;;;8.88;7.43;;;;;;;;;;5050413;28;20049;-71
2023/06/16 07:16:48;;;;;;;7.63;6.60;;;;;;;;;;5055210;28;20413;-71
2023/06/16 07:19:14;;;;;;;7.50;6.72;;;;;;;;;;5056124;28;20046;-71
2023/06/16 07:21:40;;;;;;;8.38;6.75;;;;;;;;;;5050573;28;20367;-71
2023/06/16 07:24:06;;;;;;;8.38;6.70;;;;;;;;;;4986539;28;20471;-71
2023/06/16 07:26:32;;;;;;;7.53;6.65;;;;;;;;;;4986288;28;20124;-72
2023/06/16 07:29:00;;;;;;;8.27;6.40;;;;;;;;;;4988881;28;20047;-72
2023/06/16 07:31:26;;;;;;;8.45;7.22;;;;;;;;;;4986388;28;20490;-71
2023/06/16 07:33:52;;;;;;;9.70;7.40;;;;;;;;;;4984856;28;20043;-71
2023/06/16 07:36:18;;;;;;;8.38;6.85;;;;;;;;;;5047570;28;20129;-71
2023/06/16 07:38:44;;;;;;;8.18;7.05;;;;;;;;;;5047939;28;20574;-71
2023/06/16 07:41:10;;;;;;;8.27;6.90;;;;;;;;;;4985605;28;20072;-71
2023/06/16 07:43:36;;;;;;;9.30;7.32;;;;;;;;;;4988032;28;20077;-71
2023/06/16 07:46:02;;;;;;;8.90;7.00;;;;;;;;;;4982467;28;20253;-72
2023/06/16 07:48:28;;;;;;;8.38;7.07;;;;;;;;;;4987007;28;20058;-72
2023/06/16 07:50:54;;;;;;;7.68;6.88;;;;;;;;;;4985578;28;20043;-72
2023/06/16 07:53:21;;;;;;;7.82;6.90;;;;;;;;;;5055833;28;20084;-72
2023/06/16 07:55:51;;;;;;;7.15;6.45;;;;;;;;;;5054902;28;20097;-72
2023/06/16 07:58:17;;;;;;;9.50;6.57;;;;;;;;;;5032281;28;20522;-72
2023/06/16 08:00:43;;;;;;;7.10;6.40;;;;;;;;;;5010686;28;20443;-71
2023/06/16 08:03:09;;;;;;;7.43;6.63;;;;;;;;;;4989334;28;20061;-71
2023/06/16 08:05:35;;;;;;;7.90;6.82;;;;;;;;;;4979335;28;20082;-71
2023/06/16 08:08:01;;;;;;;7.78;5.72;;;;;;;;;;4974956;28;20042;-71
2023/06/16 08:10:27;;;;;;;7.85;6.07;;;;;;;;;;5052487;28;20413;-71
2023/06/16 08:12:53;;;;;;;6.63;6.03;;;;;;;;;;4989873;28;20054;-71
2023/06/16 08:15:20;;;;;;;6.80;5.40;;;;;;;;;;4973330;28;20043;-71
2023/06/16 08:17:46;;;;;;;6.75;5.35;;;;;;;;;;4986136;28;20505;-71
2023/06/16 08:20:12;;;;;;;7.53;4.93;;;;;;;;;;4987295;28;20038;-71
2023/06/16 08:22:38;;;;;;;6.03;4.82;;;;;;;;;;4985052;28;20078;-71
2023/06/16 08:25:05;;;;;;;7.55;4.40;;;;;;;;;;5049154;28;20065;-70
2023/06/16 08:27:31;;;;;;;7.15;4.47;;;;;;;;;;5055312;28;20405;-72
2023/06/16 08:29:57;;;;;;;5.97;4.05;;;;;;;;;;5055947;28;20555;-71
2023/06/16 08:32:23;;;;;;;5.63;3.80;;;;;;;;;;5067532;28;20088;-71
2023/06/16 08:34:49;;;;;;;9.80;4.00;;;18.80;99.90;;;;;;4989807;28;20082;-71
2023/06/16 08:37:15;;;;;;;5.35;4.10;;;;;;;;;;5041787;28;20097;-71
2023/06/16 08:39:42;;;;;;;5.00;3.30;;;19.50;99.90;;;;;;4988955;28;20563;-71
2023/06/16 08:42:09;;;;;;;4.22;3.47;;;19.50;99.90;;;;;;4985509;28;20061;-71
2023/06/16 08:44:35;;;;;;;4.25;3.28;;;19.50;99.90;;;;;;4985707;28;20375;-71
2023/06/16 08:47:03;;;;;;;3.35;3.05;;;19.50;99.90;;;;;;5051381;28;20050;-71
2023/06/16 08:49:29;;;;;;;3.30;3.00;;;19.60;99.90;;;;;;4986794;28;20413;-71
2023/06/16 08:51:56;;;;;;;3.40;3.00;;;19.70;99.90;;;;;;4984456;28;20038;-71
2023/06/16 08:54:24;;;;;;;4.43;3.17;;;19.70;99.90;;;;;;4984667;28;20409;-71
2023/06/16 08:56:51;;;;;;;3.58;3.20;;;19.70;99.90;;;;;;5048538;28;20069;-71
2023/06/16 08:59:18;;;;;;;4.00;3.13;;;19.70;99.90;;;;;;4986168;28;20397;-71
2023/06/16 09:01:46;;;;;;;3.10;2.90;;;19.70;99.90;;;;;;4978981;28;20046;-71
2023/06/16 09:04:13;;;;;;;5.47;3.53;;;19.80;99.90;;;;;;5051129;28;20050;-71
2023/06/16 09:06:48;;;;;;;3.40;3.10;;;19.80;99.90;;;;;;4985369;28;20050;-71
2023/06/16 09:09:16;;;;;;;19.13;4.70;;;19.80;99.90;;;;;;5052713;28;20123;-71
2023/06/16 09:11:41;;;;;;;3.55;3.15;;;19.90;99.90;;;;;;4983859;28;20046;-71
2023/06/16 09:14:12;;;;;;;5.15;3.00;;;19.90;99.90;;;;;;4988324;28;20057;-71
2023/06/16 09:16:39;;;;;;;3.80;3.10;;;20.00;99.90;;;;;;5052200;28;20115;-71
2023/06/16 09:19:08;;;;;;;4.00;3.33;;;20.00;99.90;;;;;;4982928;28;20039;-71
2023/06/16 09:21:35;;;;;;;3.90;2.97;;;20.00;99.90;;;;;;5052379;28;20149;-71
2023/06/16 09:24:02;;;;;;;3.17;2.95;;;20.00;99.90;;;;;;4985541;28;20035;-70
2023/06/16 09:26:35;;;;;;;4.13;2.88;;;20.10;99.90;;;;;;4980526;28;20053;-71
2023/06/16 09:29:02;;;;;;;4.55;3.38;;;20.20;99.90;;;;;;4982464;28;20042;-71
2023/06/16 09:31:28;;;;;;;3.50;3.05;;;20.20;99.90;;;;;;5053528;28;20076;-71
2023/06/16 09:34:05;;;;;;;3.47;3.10;;;20.20;99.90;;;;;;5009741;28;20045;-71
2023/06/16 09:36:30;;;;;;;3.90;3.20;;;20.30;99.90;;;;;;4978454;28;20095;-71
2023/06/16 09:38:56;;;;;;;5.07;3.58;;;20.30;99.10;;;;;;4984859;28;20054;-71
2023/06/16 09:41:22;;;;;;;3.90;3.15;;;20.30;98.80;;;;;;4986082;28;20061;-71
2023/06/16 09:43:50;;;;;;;3.97;3.30;;;20.40;99.50;;;;;;4985679;28;20150;-71
2023/06/16 09:46:15;;;;;;;6.05;3.40;;;20.40;99.60;;;;;;5052615;28;20524;-71
2023/06/16 09:48:51;;;;;;;5.22;3.05;;;20.40;99.50;;;;;;5086353;28;20042;-71
2023/06/16 09:51:21;;;;;;;4.65;3.25;;;20.50;98.80;;;;;;4983461;28;20042;-71
2023/06/16 09:53:48;;;;;;;3.47;2.92;;;20.50;98.10;;;;;;5053901;28;20050;-71
2023/06/16 09:56:18;;;;;;;4.07;3.20;;;20.60;98.10;;;;;;4983737;28;20099;-71
2023/06/16 09:58:46;;;;;;;5.00;3.40;;;20.50;96.70;;;;;;5002058;28;20178;-71
2023/06/16 10:01:14;;;;;;;4.95;2.85;;;20.60;97.40;;;;;;4982003;28;20043;-71
2023/06/16 10:03:47;;;;;;;5.80;3.67;;;20.60;97.10;;;;;;4981903;28;20035;-71
2023/06/16 10:06:18;;;;;;;5.18;2.90;;;20.70;96.60;;;;;;4984793;28;20496;-71
2023/06/16 10:08:45;;;;;;;4.22;2.83;;;20.70;96.40;;;;;;4985540;28;20482;-71
2023/06/16 10:11:15;;;;;;;3.72;3.25;;;20.80;96.90;;;;;;4974802;28;20046;-71
2023/06/16 10:13:48;;;;;;;6.32;3.47;;;20.90;97.50;;;;;;4988518;28;20112;-71
2023/06/16 10:16:15;;;;;;;3.30;3.00;;;21.00;96.40;;;;;;5054713;28;20062;-71
2023/06/16 10:18:42;;;;;;;3.50;3.20;;;21.00;96.20;;;;;;4982394;28;20617;-71
2023/06/16 10:21:10;;;;;;;4.07;3.40;;;21.10;96.80;;;;;;4979473;28;20502;-71
2023/06/16 10:23:36;;;;;;;7.18;3.30;;;21.20;95.30;;;;;;5051312;28;20133;-71
2023/06/16 10:26:04;;;;;;;3.78;3.03;;;21.20;95.50;;;;;;4985242;28;20074;-71
2023/06/16 10:28:32;;;;;;;5.80;3.40;;;21.20;95.20;;;;;;4980452;28;20061;-71
2023/06/16 10:30:58;;;;;;;3.13;2.85;;;21.20;95.40;;;;;;5050814;28;20038;-71
2023/06/16 10:33:26;;;;;;;4.38;3.13;;;21.30;94.30;;;;;;5047763;28;20042;-71
2023/06/16 10:36:02;;;;;;;3.88;3.10;;;21.40;94.60;;;;;;4984189;28;20276;-72
2023/06/16 10:38:35;;;;;;;3.28;2.90;;;21.40;95.40;;;;;;4983231;28;20116;-71
2023/06/16 10:41:02;;;;;;;;;;;21.40;96.20;;;;;;5046922;28;20513;-71
2023/06/16 10:43:27;;;;;;;3.70;3.40;;;21.50;96.70;;;;;;4983703;28;19922;-71
2023/06/16 10:46:13;;;;;;;6.40;3.72;;;21.60;96.60;;;;;;5050345;28;20052;-71
2023/06/16 10:49:03;;;;;;;5.90;3.15;;;21.60;97.30;;;;;;5046861;28;20050;-71
2023/06/16 10:51:46;;;;;;;4.75;3.20;;;21.60;97.60;;;;;;4981396;28;20050;-72
2023/06/16 10:54:30;;;;;;;;;;;21.60;97.30;;;;;;4980214;28;20061;-71
2023/06/16 10:57:09;;;;;;;3.90;3.53;;;21.70;97.90;;;;;;4977426;28;19929;-71
2023/06/16 10:59:54;;;;;;;6.68;3.42;;;21.80;98.70;;;;;;4981066;28;20038;-71
2023/06/16 11:02:28;;;;;;;4.18;3.70;;;21.80;98.60;;;;;;4980811;28;20055;-71
2023/06/16 11:05:07;;;;;;;4.32;3.38;;;21.90;98.70;;;;;;4983760;28;20390;-71
2023/06/16 11:07:42;;;;;;;3.80;3.15;;;21.90;99.00;;;;;;4981261;28;20086;-71
2023/06/16 11:10:10;;;;;;;3.65;3.35;;;21.90;98.80;;;;;;5051100;28;20065;-70
2023/06/16 11:12:36;;;;;;;4.25;3.50;;;21.90;98.20;;;;;;5046743;28;20051;-70
2023/06/16 11:15:06;;;;;;;8.18;4.10;;;21.80;97.30;;;;;;4979189;28;20092;-71
2023/06/16 11:17:32;;;;;;;3.58;3.28;;;21.90;98.50;;;;;;5049902;28;20046;-71
2023/06/16 11:19:59;;;;;;;5.70;3.00;;;21.90;97.90;;;;;;4984054;28;20121;-72
2023/06/16 11:22:36;;;;;;;4.05;3.22;;;21.90;97.40;;;;;;5038131;28;20054;-71
2023/06/16 11:25:03;;;;;;;5.07;3.20;;;22.00;97.10;;;;;;4980612;28;20405;-70
2023/06/16 11:27:35;;;;;;;4.88;3.10;;;22.10;96.10;;;;;;4982919;28;20139;-71
2023/06/16 11:30:05;;;;;;;2.90;2.70;;;22.10;95.60;;;;;;4991385;28;20490;-72
2023/06/16 11:32:34;;;;;;;3.35;2.88;;;22.10;94.60;;;;;;4983155;28;20501;-72
2023/06/16 11:35:01;;;;;;;3.28;2.83;;;22.20;93.60;;;;;;4986583;28;20121;-71
2023/06/16 11:37:39;;;;;;;3.10;2.80;;;22.20;93.00;;;;;;5087491;28;20395;-71
2023/06/16 11:40:05;;;;;;;2.72;2.53;;;22.30;92.80;;;;;;4985979;28;20046;-71
2023/06/16 11:42:32;;;;;;;4.97;2.80;;;22.30;92.70;;;;;;5048118;28;20050;-72
2023/06/16 11:44:58;;;;;;;6.65;2.80;;;22.30;92.80;;;;;;4987567;28;20042;-71
2023/06/16 11:47:24;;;;;;;3.50;2.63;;;22.30;92.90;;;;;;5033315;28;20046;-72
2023/06/16 11:49:51;;;;;;;3.67;2.63;;;22.40;92.90;;;;;;4981340;28;20700;-71
2023/06/16 11:52:17;;;;;;;2.90;2.67;;;22.40;92.40;;;;;;4985317;28;20049;-72
2023/06/16 11:54:43;;;;;;;3.63;2.83;;;22.40;91.50;;;;;;4982197;28;20052;-71
2023/06/16 11:57:09;;;;;;;4.18;2.50;;;22.40;91.60;;;;;;4980557;28;20042;-71
2023/06/16 11:59:35;;;;;;;3.15;2.60;;;22.50;91.80;;;;;;4990351;28;20050;-71
2023/06/16 12:02:03;;;;;;;6.28;2.80;;;22.50;91.80;;;;;;4989631;28;20923;-71
2023/06/16 12:04:31;;;;;;;6.40;3.33;;;22.60;92.60;;;;;;4982710;28;20398;-72
2023/06/16 12:06:57;;;;;;;3.63;2.65;;;22.80;91.70;;;;;;4987684;28;20050;-71
2023/06/16 12:09:24;;;;;;;3.05;2.60;;;22.80;91.80;;;;;;4988021;28;20042;-71
2023/06/16 12:11:51;;;;;;;7.13;3.15;;;22.80;92.00;;;;;;5076953;27;20038;-71
2023/06/16 12:14:21;;;;;;;3.25;2.60;;;22.90;92.00;;;;;;4986240;28;20081;-71
2023/06/16 12:16:51;;;;;;;9.90;2.85;;;23.00;91.60;;;;;;5054938;28;20512;-71
2023/06/16 12:19:21;;;;;;;4.05;2.35;;;23.10;91.90;;;;;;4986253;28;20370;-71
2023/06/16 12:21:51;;;;;;;5.88;2.60;;;23.10;92.30;;;;;;5052887;28;20046;-71
2023/06/16 12:24:20;;;;;;;5.90;2.80;;;23.20;91.30;;;;;;5052809;28;20053;-71
2023/06/16 12:26:46;;;;;;;8.50;2.60;;;23.20;90.70;;;;;;5048731;28;20401;-71
2023/06/16 12:29:13;;;;;;;6.78;2.67;;;23.30;90.70;;;;;;4984967;28;20042;-71
2023/06/16 12:31:52;;;;;;;4.95;2.70;;;23.40;90.70;;;;;;4987144;28;20046;-71
2023/06/16 12:34:25;;;;;;;3.33;2.47;;;23.40;90.40;;;;;;4984365;28;20054;-71
2023/06/16 12:36:52;;;;;;;4.05;2.55;;;23.50;89.60;;;;;;4985952;28;20406;-71
2023/06/16 12:39:20;;;;;;;2.92;2.63;;;23.40;90.30;;;;;;4982712;28;20127;-71
2023/06/16 12:42:03;;;;;;;2.97;2.40;;;23.50;90.40;;;;;;4982284;28;20050;-72
2023/06/16 12:44:46;;;;;;;3.13;2.72;;;23.60;89.30;;;;;;4985365;28;20040;-71
2023/06/16 12:47:16;;;;;;;2.92;2.63;;;23.70;90.00;;;;;;4982075;28;20043;-71
2023/06/16 12:49:42;;;;;;;8.32;2.60;;;23.70;90.60;;;;;;4983686;28;20443;-71
2023/06/16 12:52:09;;;;;;;2.85;2.50;;;23.80;90.30;;;;;;4984356;28;20050;-71
2023/06/16 12:54:36;;;;;;;4.65;2.72;;;23.90;90.10;;;;;;5046273;28;20042;-71
2023/06/16 12:57:02;;;;;;;4.20;2.80;;;23.90;90.10;;;;;;4985943;28;20038;-71
2023/06/16 12:59:28;;;;;;;3.83;2.60;;;24.00;89.80;;;;;;4982698;28;21017;-71
2023/06/16 13:01:54;;;;;;;2.83;2.50;;;24.10;89.10;;;;;;4983073;28;20053;-71